01:05 Rennrad Moetz - Pettnau - Zirl - Kematen - Voels - Radweg - Innsbruck ARZ
Ort Moetz Datum 08.08.2017 06:22:18
Kategorie Rennrad
Distanz 39,13 Kilometer Steigung 85,0 Meter Gefälle -135,0 Meter
Gesamt Zeit 01:05:22 Aktiv 01:05:22 Pause 00:00:00
Durchs. Tempo 35,9 km/h Tempo max. 53,6 km/h Tempo min. 19,0 km/h
Kalorien 0 Durchs. HF 133 BPM HF max. 155 BPM
Wetter 13 °C PartClouds Min/Max: 12,7 °C/14,1 °C; Druck: 1014,5 mbar; Rel. Feuchte: 95,1%; Taupunkt: 13,1 °C; Windgeschwindigkeit: 1,6 km/h; Niederschlag: 0,0mm
Ausrüstung Bontrager - RL Road
Scott - Addict 20
Notiz Moetz - Pettnau - Zirl - Kematen - Voels - Radweg - Innsbruck ARZ ... trocken, anfangs frisch, durchgehend leichter bis mittlerer Rueckenwind - eher flott ... garmin connect
Splits
Distanz (km) Gesamt Zeit Split Zeit Split Tempo Split Tempo Höhenprofil (m)
1,00 00:02:00 00:02:00 00:02:00 30,0 -9,98
2,00 00:03:47 00:01:47 00:01:47 33,5 0,24
3,00 00:05:25 00:01:37 00:01:38 36,7 -0,63
4,00 00:07:04 00:01:39 00:01:40 36,2 -3,88
5,00 00:08:41 00:01:36 00:01:36 37,4 0,66
6,00 00:10:19 00:01:38 00:01:38 36,7 -0,34
7,00 00:11:59 00:01:39 00:01:40 36,0 -1,12
8,00 00:13:31 00:01:32 00:01:33 38,8 -7,50
9,00 00:15:10 00:01:39 00:01:39 36,4 -2,74
10,00 00:16:53 00:01:42 00:01:42 35,2 0,58
11,00 00:18:31 00:01:38 00:01:38 36,7 0,48
12,00 00:20:07 00:01:36 00:01:36 37,4 -6,28
13,00 00:21:48 00:01:40 00:01:41 35,7 -0,12
14,00 00:23:33 00:01:45 00:01:45 34,2 0,12
15,00 00:25:20 00:01:46 00:01:46 33,8 -4,72
16,00 00:26:51 00:01:31 00:01:31 39,4 3,57
17,00 00:28:31 00:01:39 00:01:40 36,1 -8,06
18,00 00:30:09 00:01:38 00:01:39 36,5 0,00
19,00 00:31:48 00:01:38 00:01:39 36,5 -0,50
20,00 00:33:28 00:01:40 00:01:40 35,9 -0,77
21,00 00:35:10 00:01:41 00:01:42 35,3 -3,14
22,00 00:36:40 00:01:29 00:01:30 40,0 -3,95
23,00 00:38:19 00:01:38 00:01:39 36,5 11,92
24,00 00:39:58 00:01:38 00:01:39 36,4 -0,67
25,00 00:42:16 00:02:18 00:02:18 26,1 16,06
26,00 00:43:45 00:01:29 00:01:29 40,3 -10,46
27,00 00:45:00 00:01:14 00:01:15 48,1 -29,47
28,00 00:46:31 00:01:31 00:01:31 39,4 3,58
29,00 00:48:14 00:01:42 00:01:42 35,2 0,60
30,00 00:49:52 00:01:38 00:01:38 36,6 -2,50
31,00 00:51:17 00:01:24 00:01:25 42,5 -3,17
32,00 00:52:44 00:01:27 00:01:27 41,2 -1,12
33,00 00:54:22 00:01:37 00:01:38 36,8 1,87
34,00 00:56:27 00:02:05 00:02:05 28,7 -7,91
35,00 00:58:11 00:01:43 00:01:44 34,7 -3,64
36,00 00:59:53 00:01:42 00:01:42 35,2 -1,97
37,00 01:01:35 00:01:42 00:01:42 35,2 -2,01
38,00 01:03:20 00:01:44 00:01:45 34,4 0,83
39,00 01:05:04 00:01:44 00:01:44 34,5 6,41
39,15 01:05:22 00:00:17 00:01:51 32,3 0,01